sensor_id;sensor_type;location;lat;lon;timestamp;temperature;humidity
18823;DHT22;9540;51.550;7.980;2022-12-10T00:01:53;-1.50;99.90
18823;DHT22;9540;51.550;7.980;2022-12-10T00:04:21;-1.50;99.90
18823;DHT22;9540;51.550;7.980;2022-12-10T00:06:48;-1.50;99.90
18823;DHT22;9540;51.550;7.980;2022-12-10T00:09:19;-1.40;99.90
18823;DHT22;9540;51.550;7.980;2022-12-10T00:11:47;-1.40;99.90
18823;DHT22;9540;51.550;7.980;2022-12-10T00:14:17;-1.40;99.90
18823;DHT22;9540;51.550;7.980;2022-12-10T00:16:44;-1.40;99.90
18823;DHT22;9540;51.550;7.980;2022-12-10T00:19:11;-1.40;99.90
18823;DHT22;9540;51.550;7.980;2022-12-10T00:21:38;-1.40;99.90
18823;DHT22;9540;51.550;7.980;2022-12-10T00:24:06;-1.30;99.90
18823;DHT22;9540;51.550;7.980;2022-12-10T00:26:36;-1.30;99.90
18823;DHT22;9540;51.550;7.980;2022-12-10T00:29:05;-1.30;99.90
18823;DHT22;9540;51.550;7.980;2022-12-10T00:31:35;-1.30;99.90
18823;DHT22;9540;51.550;7.980;2022-12-10T00:34:04;-1.20;99.90
18823;DHT22;9540;51.550;7.980;2022-12-10T00:36:34;-1.20;99.90
18823;DHT22;9540;51.550;7.980;2022-12-10T00:39:02;-1.20;99.90
18823;DHT22;9540;51.550;7.980;2022-12-10T00:41:29;-1.20;99.90
18823;DHT22;9540;51.550;7.980;2022-12-10T00:43:58;-1.20;99.90
18823;DHT22;9540;51.550;7.980;2022-12-10T00:46:25;-1.30;99.90
18823;DHT22;9540;51.550;7.980;2022-12-10T00:48:53;-1.30;99.90
18823;DHT22;9540;51.550;7.980;2022-12-10T00:51:21;-1.30;99.90
18823;DHT22;9540;51.550;7.980;2022-12-10T00:53:51;-1.30;99.90
18823;DHT22;9540;51.550;7.980;2022-12-10T00:56:19;-1.30;99.90
18823;DHT22;9540;51.550;7.980;2022-12-10T00:58:48;-1.30;99.90
18823;DHT22;9540;51.550;7.980;2022-12-10T01:01:19;-1.30;99.90
18823;DHT22;9540;51.550;7.980;2022-12-10T01:03:49;-1.30;99.90
18823;DHT22;9540;51.550;7.980;2022-12-10T01:06:17;-1.30;99.90
18823;DHT22;9540;51.550;7.980;2022-12-10T01:08:52;-1.30;99.90
18823;DHT22;9540;51.550;7.980;2022-12-10T01:11:21;-1.30;99.90
18823;DHT22;9540;51.550;7.980;2022-12-10T01:13:49;-1.30;99.90
18823;DHT22;9540;51.550;7.980;2022-12-10T01:16:19;-1.20;99.90
18823;DHT22;9540;51.550;7.980;2022-12-10T01:18:47;-1.30;99.90
18823;DHT22;9540;51.550;7.980;2022-12-10T01:21:16;-1.20;99.90
18823;DHT22;9540;51.550;7.980;2022-12-10T01:23:45;-1.20;99.90
18823;DHT22;9540;51.550;7.980;2022-12-10T01:26:14;-1.20;99.90
18823;DHT22;9540;51.550;7.980;2022-12-10T01:28:42;-1.10;99.90
18823;DHT22;9540;51.550;7.980;2022-12-10T01:31:11;-1.10;99.90
18823;DHT22;9540;51.550;7.980;2022-12-10T01:33:41;-1.10;99.90
18823;DHT22;9540;51.550;7.980;2022-12-10T01:36:10;-1.00;99.90
18823;DHT22;9540;51.550;7.980;2022-12-10T01:38:38;-1.00;99.90
18823;DHT22;9540;51.550;7.980;2022-12-10T01:41:06;-1.00;99.90
18823;DHT22;9540;51.550;7.980;2022-12-10T01:43:56;-1.00;99.90
18823;DHT22;9540;51.550;7.980;2022-12-10T01:46:24;-1.00;99.90
18823;DHT22;9540;51.550;7.980;2022-12-10T01:48:53;-1.00;99.90
18823;DHT22;9540;51.550;7.980;2022-12-10T01:51:22;-1.00;99.90
18823;DHT22;9540;51.550;7.980;2022-12-10T01:53:49;-1.00;99.90
18823;DHT22;9540;51.550;7.980;2022-12-10T01:56:18;-1.00;99.90
18823;DHT22;9540;51.550;7.980;2022-12-10T01:58:47;-1.00;99.90
18823;DHT22;9540;51.550;7.980;2022-12-10T02:01:22;-1.00;99.90
18823;DHT22;9540;51.550;7.980;2022-12-10T02:04:05;-1.00;99.90
18823;DHT22;9540;51.550;7.980;2022-12-10T02:06:45;-0.90;99.90
18823;DHT22;9540;51.550;7.980;2022-12-10T02:09:22;-0.90;99.90
18823;DHT22;9540;51.550;7.980;2022-12-10T02:11:58;-0.90;99.90
18823;DHT22;9540;51.550;7.980;2022-12-10T02:14:34;-0.90;99.90
18823;DHT22;9540;51.550;7.980;2022-12-10T02:17:07;-0.90;99.90
18823;DHT22;9540;51.550;7.980;2022-12-10T02:19:52;-0.90;99.90
18823;DHT22;9540;51.550;7.980;2022-12-10T02:22:26;-0.90;99.90
18823;DHT22;9540;51.550;7.980;2022-12-10T02:24:55;-0.80;99.90
18823;DHT22;9540;51.550;7.980;2022-12-10T02:27:28;-0.80;99.90
18823;DHT22;9540;51.550;7.980;2022-12-10T02:29:58;-0.70;99.90
18823;DHT22;9540;51.550;7.980;2022-12-10T02:32:31;-0.70;99.90
18823;DHT22;9540;51.550;7.980;2022-12-10T02:35:03;-0.70;99.90
18823;DHT22;9540;51.550;7.980;2022-12-10T02:37:35;-0.70;99.90
18823;DHT22;9540;51.550;7.980;2022-12-10T02:40:07;-0.70;99.90
18823;DHT22;9540;51.550;7.980;2022-12-10T02:42:38;-0.80;99.90
18823;DHT22;9540;51.550;7.980;2022-12-10T02:45:09;-0.80;99.90
18823;DHT22;9540;51.550;7.980;2022-12-10T02:47:38;-0.70;99.90
18823;DHT22;9540;51.550;7.980;2022-12-10T02:50:08;-0.70;99.90
18823;DHT22;9540;51.550;7.980;2022-12-10T02:52:36;-0.70;99.90
18823;DHT22;9540;51.550;7.980;2022-12-10T02:55:03;-0.70;99.90
18823;DHT22;9540;51.550;7.980;2022-12-10T02:57:35;-0.70;99.90
18823;DHT22;9540;51.550;7.980;2022-12-10T03:00:10;-0.70;99.90
18823;DHT22;9540;51.550;7.980;2022-12-10T03:03:11;-0.60;99.90
18823;DHT22;9540;51.550;7.980;2022-12-10T03:05:45;-0.60;99.90
18823;DHT22;9540;51.550;7.980;2022-12-10T03:08:16;-0.60;99.90
18823;DHT22;9540;51.550;7.980;2022-12-10T03:10:50;-0.70;99.90
18823;DHT22;9540;51.550;7.980;2022-12-10T03:13:23;-0.70;99.90
18823;DHT22;9540;51.550;7.980;2022-12-10T03:15:54;-0.80;99.90
18823;DHT22;9540;51.550;7.980;2022-12-10T03:18:23;-0.80;99.90
18823;DHT22;9540;51.550;7.980;2022-12-10T03:20:53;-0.80;99.90
18823;DHT22;9540;51.550;7.980;2022-12-10T03:23:21;-0.90;99.90
18823;DHT22;9540;51.550;7.980;2022-12-10T03:25:50;-0.90;99.90
18823;DHT22;9540;51.550;7.980;2022-12-10T03:28:19;-0.90;99.90
18823;DHT22;9540;51.550;7.980;2022-12-10T03:30:48;-0.90;99.90
18823;DHT22;9540;51.550;7.980;2022-12-10T03:33:18;-1.00;99.90
18823;DHT22;9540;51.550;7.980;2022-12-10T03:35:45;-1.00;99.90
18823;DHT22;9540;51.550;7.980;2022-12-10T03:38:14;-1.10;99.90
18823;DHT22;9540;51.550;7.980;2022-12-10T03:40:42;-1.10;99.90
18823;DHT22;9540;51.550;7.980;2022-12-10T03:43:12;-1.10;99.90
18823;DHT22;9540;51.550;7.980;2022-12-10T03:45:39;-1.10;99.90
18823;DHT22;9540;51.550;7.980;2022-12-10T03:48:07;-1.00;99.90
18823;DHT22;9540;51.550;7.980;2022-12-10T03:50:35;-0.90;99.90
18823;DHT22;9540;51.550;7.980;2022-12-10T03:53:02;-0.80;99.90
18823;DHT22;9540;51.550;7.980;2022-12-10T03:55:29;-0.70;99.90
18823;DHT22;9540;51.550;7.980;2022-12-10T03:57:58;-0.70;99.90
18823;DHT22;9540;51.550;7.980;2022-12-10T04:00:25;-0.70;99.90
18823;DHT22;9540;51.550;7.980;2022-12-10T04:02:52;-0.70;99.90
18823;DHT22;9540;51.550;7.980;2022-12-10T04:05:20;-0.80;99.90
18823;DHT22;9540;51.550;7.980;2022-12-10T04:07:48;-0.80;99.90
18823;DHT22;9540;51.550;7.980;2022-12-10T04:10:16;-0.80;99.90
18823;DHT22;9540;51.550;7.980;2022-12-10T04:12:43;-0.80;99.90
18823;DHT22;9540;51.550;7.980;2022-12-10T04:15:30;-0.80;99.90
18823;DHT22;9540;51.550;7.980;2022-12-10T04:18:15;-0.80;99.90
18823;DHT22;9540;51.550;7.980;2022-12-10T04:20:42;-0.80;99.90
18823;DHT22;9540;51.550;7.980;2022-12-10T04:23:25;-0.80;99.90
18823;DHT22;9540;51.550;7.980;2022-12-10T04:26:09;-0.80;99.90
18823;DHT22;9540;51.550;7.980;2022-12-10T04:28:53;-0.80;99.90
18823;DHT22;9540;51.550;7.980;2022-12-10T04:31:21;-0.80;99.90
18823;DHT22;9540;51.550;7.980;2022-12-10T04:33:48;-0.80;99.90
18823;DHT22;9540;51.550;7.980;2022-12-10T04:36:15;-0.80;99.90
18823;DHT22;9540;51.550;7.980;2022-12-10T04:38:43;-0.80;99.90
18823;DHT22;9540;51.550;7.980;2022-12-10T04:41:10;-0.80;99.90
18823;DHT22;9540;51.550;7.980;2022-12-10T04:43:41;-0.80;99.90
18823;DHT22;9540;51.550;7.980;2022-12-10T04:46:08;-0.80;99.90
18823;DHT22;9540;51.550;7.980;2022-12-10T04:48:35;-0.80;99.90
18823;DHT22;9540;51.550;7.980;2022-12-10T04:51:02;-0.70;99.90
18823;DHT22;9540;51.550;7.980;2022-12-10T04:53:30;-0.70;99.90
18823;DHT22;9540;51.550;7.980;2022-12-10T04:55:58;-0.80;99.90
18823;DHT22;9540;51.550;7.980;2022-12-10T04:58:26;-0.80;99.90
18823;DHT22;9540;51.550;7.980;2022-12-10T05:01:01;-0.80;99.90
18823;DHT22;9540;51.550;7.980;2022-12-10T05:03:37;-0.90;99.90
18823;DHT22;9540;51.550;7.980;2022-12-10T05:06:07;-0.80;99.90
18823;DHT22;9540;51.550;7.980;2022-12-10T05:08:34;-0.80;99.90
18823;DHT22;9540;51.550;7.980;2022-12-10T05:11:05;-0.80;99.90
18823;DHT22;9540;51.550;7.980;2022-12-10T05:13:33;-0.80;99.90
18823;DHT22;9540;51.550;7.980;2022-12-10T05:16:01;-0.80;99.90
18823;DHT22;9540;51.550;7.980;2022-12-10T05:18:29;-0.80;99.90
18823;DHT22;9540;51.550;7.980;2022-12-10T05:20:58;-0.80;99.90
18823;DHT22;9540;51.550;7.980;2022-12-10T05:23:26;-0.80;99.90
18823;DHT22;9540;51.550;7.980;2022-12-10T05:25:59;-0.70;99.90
18823;DHT22;9540;51.550;7.980;2022-12-10T05:28:28;-0.70;99.90
18823;DHT22;9540;51.550;7.980;2022-12-10T05:30:55;-0.70;99.90
18823;DHT22;9540;51.550;7.980;2022-12-10T05:33:23;-0.70;99.90
18823;DHT22;9540;51.550;7.980;2022-12-10T05:35:54;-0.70;99.90
18823;DHT22;9540;51.550;7.980;2022-12-10T05:38:22;-0.70;99.90
18823;DHT22;9540;51.550;7.980;2022-12-10T05:40:50;-0.70;99.90
18823;DHT22;9540;51.550;7.980;2022-12-10T05:43:18;-0.70;99.90
18823;DHT22;9540;51.550;7.980;2022-12-10T05:45:47;-0.70;99.90
18823;DHT22;9540;51.550;7.980;2022-12-10T05:48:15;-0.60;99.90
18823;DHT22;9540;51.550;7.980;2022-12-10T05:50:43;-0.60;99.90
18823;DHT22;9540;51.550;7.980;2022-12-10T05:53:10;-0.60;99.90
18823;DHT22;9540;51.550;7.980;2022-12-10T05:55:39;-0.50;99.90
18823;DHT22;9540;51.550;7.980;2022-12-10T05:58:06;-0.50;99.90
18823;DHT22;9540;51.550;7.980;2022-12-10T06:00:34;-0.50;99.90
18823;DHT22;9540;51.550;7.980;2022-12-10T06:03:02;-0.50;99.90
18823;DHT22;9540;51.550;7.980;2022-12-10T06:05:29;-0.50;99.90
18823;DHT22;9540;51.550;7.980;2022-12-10T06:07:57;-0.50;99.90
18823;DHT22;9540;51.550;7.980;2022-12-10T06:10:24;-0.50;99.90
18823;DHT22;9540;51.550;7.980;2022-12-10T06:12:51;-0.50;99.90
18823;DHT22;9540;51.550;7.980;2022-12-10T06:15:18;-0.50;99.90
18823;DHT22;9540;51.550;7.980;2022-12-10T06:17:45;-0.60;99.90
18823;DHT22;9540;51.550;7.980;2022-12-10T06:20:14;-0.60;99.90
18823;DHT22;9540;51.550;7.980;2022-12-10T06:22:41;-0.60;99.90
18823;DHT22;9540;51.550;7.980;2022-12-10T06:25:08;-0.60;99.90
18823;DHT22;9540;51.550;7.980;2022-12-10T06:27:36;-0.60;99.90
18823;DHT22;9540;51.550;7.980;2022-12-10T06:30:04;-0.50;99.90
18823;DHT22;9540;51.550;7.980;2022-12-10T06:32:31;-0.50;99.90
18823;DHT22;9540;51.550;7.980;2022-12-10T06:34:58;-0.50;99.90
18823;DHT22;9540;51.550;7.980;2022-12-10T06:37:27;-0.50;99.90
18823;DHT22;9540;51.550;7.980;2022-12-10T06:39:54;-0.50;99.90
18823;DHT22;9540;51.550;7.980;2022-12-10T06:42:21;-0.50;99.90
18823;DHT22;9540;51.550;7.980;2022-12-10T06:44:48;-0.50;99.90
18823;DHT22;9540;51.550;7.980;2022-12-10T06:47:16;-0.50;99.90
18823;DHT22;9540;51.550;7.980;2022-12-10T06:49:43;-0.50;99.90
18823;DHT22;9540;51.550;7.980;2022-12-10T06:52:10;-0.50;99.90
18823;DHT22;9540;51.550;7.980;2022-12-10T06:54:42;-0.50;99.90
18823;DHT22;9540;51.550;7.980;2022-12-10T06:57:09;-0.60;99.90
18823;DHT22;9540;51.550;7.980;2022-12-10T06:59:36;-0.60;99.90
18823;DHT22;9540;51.550;7.980;2022-12-10T07:02:04;-0.60;99.90
18823;DHT22;9540;51.550;7.980;2022-12-10T07:04:31;-0.60;99.90
18823;DHT22;9540;51.550;7.980;2022-12-10T07:06:58;-0.60;99.90
18823;DHT22;9540;51.550;7.980;2022-12-10T07:09:25;-0.60;99.90
18823;DHT22;9540;51.550;7.980;2022-12-10T07:11:54;-0.60;99.90
18823;DHT22;9540;51.550;7.980;2022-12-10T07:14:21;-0.60;99.90
18823;DHT22;9540;51.550;7.980;2022-12-10T07:16:48;-0.60;99.90
18823;DHT22;9540;51.550;7.980;2022-12-10T07:19:16;-0.60;99.90
18823;DHT22;9540;51.550;7.980;2022-12-10T07:21:43;-0.60;99.90
18823;DHT22;9540;51.550;7.980;2022-12-10T07:24:14;-0.60;99.90
18823;DHT22;9540;51.550;7.980;2022-12-10T07:26:42;-0.60;99.90
18823;DHT22;9540;51.550;7.980;2022-12-10T07:29:13;-0.60;99.90
18823;DHT22;9540;51.550;7.980;2022-12-10T07:31:41;-0.60;99.90
18823;DHT22;9540;51.550;7.980;2022-12-10T07:34:09;-0.70;99.90
18823;DHT22;9540;51.550;7.980;2022-12-10T07:36:37;-0.70;99.90
18823;DHT22;9540;51.550;7.980;2022-12-10T07:39:06;-0.70;99.90
18823;DHT22;9540;51.550;7.980;2022-12-10T07:41:33;-0.70;99.90
18823;DHT22;9540;51.550;7.980;2022-12-10T07:44:01;-0.70;99.90
18823;DHT22;9540;51.550;7.980;2022-12-10T07:46:31;-0.70;99.90
18823;DHT22;9540;51.550;7.980;2022-12-10T07:49:00;-0.70;99.90
18823;DHT22;9540;51.550;7.980;2022-12-10T07:51:27;-0.70;99.90
18823;DHT22;9540;51.550;7.980;2022-12-10T07:53:55;-0.70;99.90
18823;DHT22;9540;51.550;7.980;2022-12-10T07:56:23;-0.70;99.90
18823;DHT22;9540;51.550;7.980;2022-12-10T07:58:51;-0.70;99.90
18823;DHT22;9540;51.550;7.980;2022-12-10T08:01:19;-0.70;99.90
18823;DHT22;9540;51.550;7.980;2022-12-10T08:03:49;-0.60;99.90
18823;DHT22;9540;51.550;7.980;2022-12-10T08:06:18;-0.60;99.90
18823;DHT22;9540;51.550;7.980;2022-12-10T08:08:46;-0.60;99.90
18823;DHT22;9540;51.550;7.980;2022-12-10T08:11:15;-0.60;99.90
18823;DHT22;9540;51.550;7.980;2022-12-10T08:13:42;-0.60;99.90
18823;DHT22;9540;51.550;7.980;2022-12-10T08:16:12;-0.60;99.90
18823;DHT22;9540;51.550;7.980;2022-12-10T08:18:40;-0.60;99.90
18823;DHT22;9540;51.550;7.980;2022-12-10T08:21:10;-0.60;99.90
18823;DHT22;9540;51.550;7.980;2022-12-10T08:23:38;-0.50;99.90
18823;DHT22;9540;51.550;7.980;2022-12-10T08:26:07;-0.50;99.90
18823;DHT22;9540;51.550;7.980;2022-12-10T08:28:34;-0.50;99.90
18823;DHT22;9540;51.550;7.980;2022-12-10T08:31:04;-0.50;99.90
18823;DHT22;9540;51.550;7.980;2022-12-10T08:33:33;-0.50;99.90
18823;DHT22;9540;51.550;7.980;2022-12-10T08:36:00;-0.50;99.90
18823;DHT22;9540;51.550;7.980;2022-12-10T08:38:30;-0.50;99.90
18823;DHT22;9540;51.550;7.980;2022-12-10T08:40:57;-0.40;99.90
18823;DHT22;9540;51.550;7.980;2022-12-10T08:43:24;-0.50;99.90
18823;DHT22;9540;51.550;7.980;2022-12-10T08:45:52;-0.50;99.90
18823;DHT22;9540;51.550;7.980;2022-12-10T08:48:20;-0.50;99.90
18823;DHT22;9540;51.550;7.980;2022-12-10T08:50:49;-0.40;99.90
18823;DHT22;9540;51.550;7.980;2022-12-10T08:53:16;-0.40;99.90
18823;DHT22;9540;51.550;7.980;2022-12-10T08:55:45;-0.40;99.90
18823;DHT22;9540;51.550;7.980;2022-12-10T08:58:12;-0.30;99.90
18823;DHT22;9540;51.550;7.980;2022-12-10T09:00:39;-0.30;99.90
18823;DHT22;9540;51.550;7.980;2022-12-10T09:03:07;-0.30;99.90
18823;DHT22;9540;51.550;7.980;2022-12-10T09:05:35;-0.30;99.90
18823;DHT22;9540;51.550;7.980;2022-12-10T09:08:02;-0.30;99.90
18823;DHT22;9540;51.550;7.980;2022-12-10T09:10:29;-0.30;99.90
18823;DHT22;9540;51.550;7.980;2022-12-10T09:12:57;-0.30;99.90
18823;DHT22;9540;51.550;7.980;2022-12-10T09:15:25;-0.20;99.90
18823;DHT22;9540;51.550;7.980;2022-12-10T09:17:52;-0.20;99.90
18823;DHT22;9540;51.550;7.980;2022-12-10T09:20:19;-0.20;99.90
18823;DHT22;9540;51.550;7.980;2022-12-10T09:22:46;-0.20;99.90
18823;DHT22;9540;51.550;7.980;2022-12-10T09:25:13;-0.20;99.90
18823;DHT22;9540;51.550;7.980;2022-12-10T09:27:42;-0.20;99.90
18823;DHT22;9540;51.550;7.980;2022-12-10T09:30:12;-0.30;99.90
18823;DHT22;9540;51.550;7.980;2022-12-10T09:32:39;-0.30;99.90
18823;DHT22;9540;51.550;7.980;2022-12-10T09:35:07;-0.20;99.90
18823;DHT22;9540;51.550;7.980;2022-12-10T09:37:34;-0.20;99.90
18823;DHT22;9540;51.550;7.980;2022-12-10T09:40:02;-0.20;99.90
18823;DHT22;9540;51.550;7.980;2022-12-10T09:42:45;-0.20;99.90
18823;DHT22;9540;51.550;7.980;2022-12-10T09:45:19;-0.20;99.90
18823;DHT22;9540;51.550;7.980;2022-12-10T09:47:55;-0.10;99.90
18823;DHT22;9540;51.550;7.980;2022-12-10T09:50:30;0.10;99.90
18823;DHT22;9540;51.550;7.980;2022-12-10T09:53:00;0.10;99.90
18823;DHT22;9540;51.550;7.980;2022-12-10T09:55:32;0.20;99.90
18823;DHT22;9540;51.550;7.980;2022-12-10T09:58:02;0.30;99.90
18823;DHT22;9540;51.550;7.980;2022-12-10T10:00:36;0.30;99.90
18823;DHT22;9540;51.550;7.980;2022-12-10T10:03:04;0.40;99.90
18823;DHT22;9540;51.550;7.980;2022-12-10T10:05:35;0.50;99.90
18823;DHT22;9540;51.550;7.980;2022-12-10T10:08:11;0.60;99.90
18823;DHT22;9540;51.550;7.980;2022-12-10T10:10:40;0.60;99.90
18823;DHT22;9540;51.550;7.980;2022-12-10T10:13:16;0.60;99.90
18823;DHT22;9540;51.550;7.980;2022-12-10T10:15:47;0.60;99.90
18823;DHT22;9540;51.550;7.980;2022-12-10T10:18:23;0.60;99.90
18823;DHT22;9540;51.550;7.980;2022-12-10T10:20:53;0.60;99.90
18823;DHT22;9540;51.550;7.980;2022-12-10T10:23:21;0.60;99.90
18823;DHT22;9540;51.550;7.980;2022-12-10T10:25:48;0.70;99.90
18823;DHT22;9540;51.550;7.980;2022-12-10T10:28:19;0.80;99.90
18823;DHT22;9540;51.550;7.980;2022-12-10T10:30:48;0.70;99.90
18823;DHT22;9540;51.550;7.980;2022-12-10T10:33:17;0.70;99.90
18823;DHT22;9540;51.550;7.980;2022-12-10T10:35:48;0.70;99.90
18823;DHT22;9540;51.550;7.980;2022-12-10T10:38:18;0.80;99.90
18823;DHT22;9540;51.550;7.980;2022-12-10T10:40:50;0.80;99.90
18823;DHT22;9540;51.550;7.980;2022-12-10T10:43:21;0.80;99.90
18823;DHT22;9540;51.550;7.980;2022-12-10T10:45:52;0.80;99.90
18823;DHT22;9540;51.550;7.980;2022-12-10T10:48:23;0.80;99.90
18823;DHT22;9540;51.550;7.980;2022-12-10T10:50:52;0.80;99.90
18823;DHT22;9540;51.550;7.980;2022-12-10T10:53:30;0.70;99.90
18823;DHT22;9540;51.550;7.980;2022-12-10T10:56:07;0.70;99.90
18823;DHT22;9540;51.550;7.980;2022-12-10T10:58:56;0.70;99.90
18823;DHT22;9540;51.550;7.980;2022-12-10T11:01:26;0.60;99.90
18823;DHT22;9540;51.550;7.980;2022-12-10T11:03:55;0.50;99.90
18823;DHT22;9540;51.550;7.980;2022-12-10T11:06:24;0.40;99.90
18823;DHT22;9540;51.550;7.980;2022-12-10T11:08:55;0.40;99.90
18823;DHT22;9540;51.550;7.980;2022-12-10T11:11:32;0.40;99.90
18823;DHT22;9540;51.550;7.980;2022-12-10T11:14:14;0.40;99.90
18823;DHT22;9540;51.550;7.980;2022-12-10T11:16:43;0.40;99.90
18823;DHT22;9540;51.550;7.980;2022-12-10T11:19:19;0.50;99.90
18823;DHT22;9540;51.550;7.980;2022-12-10T11:21:47;0.50;99.90
18823;DHT22;9540;51.550;7.980;2022-12-10T11:24:18;0.40;99.90
18823;DHT22;9540;51.550;7.980;2022-12-10T11:26:59;0.40;99.90
18823;DHT22;9540;51.550;7.980;2022-12-10T11:29:49;0.40;99.90
18823;DHT22;9540;51.550;7.980;2022-12-10T11:32:46;0.40;99.90
18823;DHT22;9540;51.550;7.980;2022-12-10T11:35:21;0.40;99.90
18823;DHT22;9540;51.550;7.980;2022-12-10T11:37:56;0.50;99.90
18823;DHT22;9540;51.550;7.980;2022-12-10T11:40:40;0.50;99.90
18823;DHT22;9540;51.550;7.980;2022-12-10T11:43:24;0.50;99.90
18823;DHT22;9540;51.550;7.980;2022-12-10T11:46:05;0.50;99.90
18823;DHT22;9540;51.550;7.980;2022-12-10T11:48:50;0.50;99.90
18823;DHT22;9540;51.550;7.980;2022-12-10T11:51:28;0.60;99.90
18823;DHT22;9540;51.550;7.980;2022-12-10T11:54:11;0.60;99.90
18823;DHT22;9540;51.550;7.980;2022-12-10T11:56:44;0.60;99.90
18823;DHT22;9540;51.550;7.980;2022-12-10T11:59:16;0.60;99.90
18823;DHT22;9540;51.550;7.980;2022-12-10T12:02:03;0.70;99.90
18823;DHT22;9540;51.550;7.980;2022-12-10T12:05:06;0.70;99.90
18823;DHT22;9540;51.550;7.980;2022-12-10T12:07:40;0.70;99.90
18823;DHT22;9540;51.550;7.980;2022-12-10T12:10:26;0.60;99.90
18823;DHT22;9540;51.550;7.980;2022-12-10T12:12:59;0.60;99.90
18823;DHT22;9540;51.550;7.980;2022-12-10T12:15:29;0.60;99.90
18823;DHT22;9540;51.550;7.980;2022-12-10T12:18:00;0.60;99.90
18823;DHT22;9540;51.550;7.980;2022-12-10T12:20:32;0.70;99.90
18823;DHT22;9540;51.550;7.980;2022-12-10T12:23:06;0.70;99.90
18823;DHT22;9540;51.550;7.980;2022-12-10T12:25:42;0.80;99.90
18823;DHT22;9540;51.550;7.980;2022-12-10T12:28:14;0.80;99.90
18823;DHT22;9540;51.550;7.980;2022-12-10T12:30:45;0.80;99.90
18823;DHT22;9540;51.550;7.980;2022-12-10T12:33:22;0.90;99.90
18823;DHT22;9540;51.550;7.980;2022-12-10T12:35:57;1.00;99.90
18823;DHT22;9540;51.550;7.980;2022-12-10T12:38:29;0.90;99.90
18823;DHT22;9540;51.550;7.980;2022-12-10T12:41:01;0.90;99.90
18823;DHT22;9540;51.550;7.980;2022-12-10T12:43:39;0.90;99.90
18823;DHT22;9540;51.550;7.980;2022-12-10T12:46:12;0.80;99.90
18823;DHT22;9540;51.550;7.980;2022-12-10T12:48:46;0.70;99.90
18823;DHT22;9540;51.550;7.980;2022-12-10T12:51:23;0.70;99.90
18823;DHT22;9540;51.550;7.980;2022-12-10T12:53:52;0.60;99.90
18823;DHT22;9540;51.550;7.980;2022-12-10T12:56:25;0.50;99.90
18823;DHT22;9540;51.550;7.980;2022-12-10T12:59:03;0.40;99.90
18823;DHT22;9540;51.550;7.980;2022-12-10T13:01:34;0.40;99.90
18823;DHT22;9540;51.550;7.980;2022-12-10T13:04:03;0.40;99.90
18823;DHT22;9540;51.550;7.980;2022-12-10T13:06:34;0.40;99.90
18823;DHT22;9540;51.550;7.980;2022-12-10T13:09:24;0.50;99.90
18823;DHT22;9540;51.550;7.980;2022-12-10T13:12:17;0.50;99.90
18823;DHT22;9540;51.550;7.980;2022-12-10T13:14:56;0.50;99.90
18823;DHT22;9540;51.550;7.980;2022-12-10T13:17:31;0.50;99.90
18823;DHT22;9540;51.550;7.980;2022-12-10T13:20:28;0.50;99.90
18823;DHT22;9540;51.550;7.980;2022-12-10T13:22:59;0.40;99.90
18823;DHT22;9540;51.550;7.980;2022-12-10T13:25:42;0.30;99.90
18823;DHT22;9540;51.550;7.980;2022-12-10T13:28:27;0.30;99.90
18823;DHT22;9540;51.550;7.980;2022-12-10T13:31:16;0.30;99.90
18823;DHT22;9540;51.550;7.980;2022-12-10T13:33:47;0.40;99.90
18823;DHT22;9540;51.550;7.980;2022-12-10T13:36:20;0.20;99.90
18823;DHT22;9540;51.550;7.980;2022-12-10T13:39:10;0.10;99.90
18823;DHT22;9540;51.550;7.980;2022-12-10T13:41:42;0.10;99.90
18823;DHT22;9540;51.550;7.980;2022-12-10T13:44:47;0.10;99.90
18823;DHT22;9540;51.550;7.980;2022-12-10T13:47:26;0.00;99.90
18823;DHT22;9540;51.550;7.980;2022-12-10T13:49:56;0.00;99.90
18823;DHT22;9540;51.550;7.980;2022-12-10T13:52:28;-0.10;99.90
18823;DHT22;9540;51.550;7.980;2022-12-10T13:55:17;-0.10;99.90
18823;DHT22;9540;51.550;7.980;2022-12-10T13:58:00;0.00;99.90
18823;DHT22;9540;51.550;7.980;2022-12-10T14:00:37;0.00;99.90
18823;DHT22;9540;51.550;7.980;2022-12-10T14:03:33;0.10;99.90
18823;DHT22;9540;51.550;7.980;2022-12-10T14:06:14;0.10;99.90
18823;DHT22;9540;51.550;7.980;2022-12-10T14:08:55;0.20;99.90
18823;DHT22;9540;51.550;7.980;2022-12-10T14:11:28;0.10;99.90
18823;DHT22;9540;51.550;7.980;2022-12-10T14:13:57;0.10;99.90
18823;DHT22;9540;51.550;7.980;2022-12-10T14:16:28;0.10;99.90
18823;DHT22;9540;51.550;7.980;2022-12-10T14:18:58;0.10;99.90
18823;DHT22;9540;51.550;7.980;2022-12-10T14:21:27;0.00;99.90
18823;DHT22;9540;51.550;7.980;2022-12-10T14:23:58;-0.10;99.90
18823;DHT22;9540;51.550;7.980;2022-12-10T14:26:29;-0.10;99.90
18823;DHT22;9540;51.550;7.980;2022-12-10T14:28:58;-0.20;99.90
18823;DHT22;9540;51.550;7.980;2022-12-10T14:31:29;-0.20;99.90
18823;DHT22;9540;51.550;7.980;2022-12-10T14:34:00;-0.20;99.90
18823;DHT22;9540;51.550;7.980;2022-12-10T14:36:30;-0.20;99.90
18823;DHT22;9540;51.550;7.980;2022-12-10T14:38:59;-0.20;99.90
18823;DHT22;9540;51.550;7.980;2022-12-10T14:41:30;-0.20;99.90
18823;DHT22;9540;51.550;7.980;2022-12-10T14:44:02;-0.20;99.90
18823;DHT22;9540;51.550;7.980;2022-12-10T14:46:31;-0.20;99.90
18823;DHT22;9540;51.550;7.980;2022-12-10T14:48:59;-0.20;99.90
18823;DHT22;9540;51.550;7.980;2022-12-10T14:51:31;-0.20;99.90
18823;DHT22;9540;51.550;7.980;2022-12-10T14:53:59;-0.20;99.90
18823;DHT22;9540;51.550;7.980;2022-12-10T14:56:30;-0.30;99.90
18823;DHT22;9540;51.550;7.980;2022-12-10T14:59:04;-0.30;99.90
18823;DHT22;9540;51.550;7.980;2022-12-10T15:01:34;-0.40;99.90
18823;DHT22;9540;51.550;7.980;2022-12-10T15:04:05;-0.40;99.90
18823;DHT22;9540;51.550;7.980;2022-12-10T15:06:34;-0.40;99.90
18823;DHT22;9540;51.550;7.980;2022-12-10T15:09:04;-0.50;99.90
18823;DHT22;9540;51.550;7.980;2022-12-10T15:11:33;-0.50;99.90
18823;DHT22;9540;51.550;7.980;2022-12-10T15:14:01;-0.60;99.90
18823;DHT22;9540;51.550;7.980;2022-12-10T15:16:32;-0.60;99.90
18823;DHT22;9540;51.550;7.980;2022-12-10T15:19:18;-0.60;99.90
18823;DHT22;9540;51.550;7.980;2022-12-10T15:21:46;-0.60;99.90
18823;DHT22;9540;51.550;7.980;2022-12-10T15:24:17;-0.60;99.90
18823;DHT22;9540;51.550;7.980;2022-12-10T15:26:47;-0.60;99.90
18823;DHT22;9540;51.550;7.980;2022-12-10T15:29:29;-0.60;99.90
18823;DHT22;9540;51.550;7.980;2022-12-10T15:32:00;-0.60;99.90
18823;DHT22;9540;51.550;7.980;2022-12-10T15:34:29;-0.60;99.90
18823;DHT22;9540;51.550;7.980;2022-12-10T15:37:02;-0.60;99.90
18823;DHT22;9540;51.550;7.980;2022-12-10T15:39:32;-0.60;99.90
18823;DHT22;9540;51.550;7.980;2022-12-10T15:42:05;-0.60;99.90
18823;DHT22;9540;51.550;7.980;2022-12-10T15:44:36;-0.60;99.90
18823;DHT22;9540;51.550;7.980;2022-12-10T15:47:11;-0.60;99.90
18823;DHT22;9540;51.550;7.980;2022-12-10T15:49:39;-0.60;99.90
18823;DHT22;9540;51.550;7.980;2022-12-10T15:52:10;-0.60;99.90
18823;DHT22;9540;51.550;7.980;2022-12-10T15:54:41;-0.60;99.90
18823;DHT22;9540;51.550;7.980;2022-12-10T15:57:14;-0.60;99.90
18823;DHT22;9540;51.550;7.980;2022-12-10T15:59:41;-0.60;99.90
18823;DHT22;9540;51.550;7.980;2022-12-10T16:02:20;-0.50;99.90
18823;DHT22;9540;51.550;7.980;2022-12-10T16:04:51;-0.60;99.90
18823;DHT22;9540;51.550;7.980;2022-12-10T16:07:18;-0.60;99.90
18823;DHT22;9540;51.550;7.980;2022-12-10T16:09:46;-0.60;99.90
18823;DHT22;9540;51.550;7.980;2022-12-10T16:12:16;-0.60;99.90
18823;DHT22;9540;51.550;7.980;2022-12-10T16:14:47;-0.60;99.90
18823;DHT22;9540;51.550;7.980;2022-12-10T16:17:16;-0.60;99.90